sensor_id;sensor_type;location;lat;lon;timestamp;P1;durP1;ratioP1;P2;durP2;ratioP2
50739;SDS011;36704;52.524;17.580;2022-08-07T00:00:49;3.95;;;2.10;;
50739;SDS011;36704;52.524;17.580;2022-08-07T00:03:36;2.47;;;1.70;;
50739;SDS011;36704;52.524;17.580;2022-08-07T00:06:32;4.10;;;2.00;;
50739;SDS011;36704;52.524;17.580;2022-08-07T00:09:19;5.28;;;2.00;;
50739;SDS011;36704;52.524;17.580;2022-08-07T00:12:07;2.90;;;1.63;;
50739;SDS011;36704;52.524;17.580;2022-08-07T00:14:56;4.95;;;1.83;;
50739;SDS011;36704;52.524;17.580;2022-08-07T00:17:43;5.63;;;2.15;;
50739;SDS011;36704;52.524;17.580;2022-08-07T00:20:33;3.13;;;1.70;;
50739;SDS011;36704;52.524;17.580;2022-08-07T00:23:22;3.60;;;1.92;;
50739;SDS011;36704;52.524;17.580;2022-08-07T00:26:16;4.55;;;1.70;;
50739;SDS011;36704;52.524;17.580;2022-08-07T00:29:24;5.28;;;1.77;;
50739;SDS011;36704;52.524;17.580;2022-08-07T00:32:16;3.55;;;1.40;;
50739;SDS011;36704;52.524;17.580;2022-08-07T00:35:17;8.00;;;1.90;;
50739;SDS011;36704;52.524;17.580;2022-08-07T00:38:07;3.78;;;1.48;;
50739;SDS011;36704;52.524;17.580;2022-08-07T00:40:58;4.28;;;2.17;;
50739;SDS011;36704;52.524;17.580;2022-08-07T00:43:46;4.13;;;1.80;;
50739;SDS011;36704;52.524;17.580;2022-08-07T00:46:47;3.67;;;1.58;;
50739;SDS011;36704;52.524;17.580;2022-08-07T00:49:35;4.78;;;2.00;;
50739;SDS011;36704;52.524;17.580;2022-08-07T00:52:42;5.22;;;2.30;;
50739;SDS011;36704;52.524;17.580;2022-08-07T00:55:32;4.88;;;2.30;;
50739;SDS011;36704;52.524;17.580;2022-08-07T00:58:45;2.97;;;2.13;;
50739;SDS011;36704;52.524;17.580;2022-08-07T01:01:35;6.32;;;2.17;;
50739;SDS011;36704;52.524;17.580;2022-08-07T01:04:32;3.67;;;2.28;;
50739;SDS011;36704;52.524;17.580;2022-08-07T01:07:27;4.80;;;2.88;;
50739;SDS011;36704;52.524;17.580;2022-08-07T01:10:16;4.22;;;2.75;;
50739;SDS011;36704;52.524;17.580;2022-08-07T01:13:03;5.53;;;2.58;;
50739;SDS011;36704;52.524;17.580;2022-08-07T01:15:52;4.43;;;2.45;;
50739;SDS011;36704;52.524;17.580;2022-08-07T01:18:50;4.45;;;2.20;;
50739;SDS011;36704;52.524;17.580;2022-08-07T01:21:37;4.75;;;2.35;;
50739;SDS011;36704;52.524;17.580;2022-08-07T01:27:17;8.02;;;3.00;;
50739;SDS011;36704;52.524;17.580;2022-08-07T01:30:05;3.83;;;2.35;;
50739;SDS011;36704;52.524;17.580;2022-08-07T01:32:56;6.55;;;2.58;;
50739;SDS011;36704;52.524;17.580;2022-08-07T01:35:46;5.72;;;2.30;;
50739;SDS011;36704;52.524;17.580;2022-08-07T01:38:43;6.70;;;2.47;;
50739;SDS011;36704;52.524;17.580;2022-08-07T01:41:38;2.80;;;2.00;;
50739;SDS011;36704;52.524;17.580;2022-08-07T01:44:47;4.30;;;2.60;;
50739;SDS011;36704;52.524;17.580;2022-08-07T01:47:34;4.80;;;2.80;;
50739;SDS011;36704;52.524;17.580;2022-08-07T01:50:42;3.50;;;2.30;;
50739;SDS011;36704;52.524;17.580;2022-08-07T01:53:35;5.07;;;2.60;;
50739;SDS011;36704;52.524;17.580;2022-08-07T01:56:51;5.30;;;2.88;;
50739;SDS011;36704;52.524;17.580;2022-08-07T01:59:43;5.10;;;2.58;;
50739;SDS011;36704;52.524;17.580;2022-08-07T02:02:49;7.85;;;2.53;;
50739;SDS011;36704;52.524;17.580;2022-08-07T02:06:02;4.82;;;2.58;;
50739;SDS011;36704;52.524;17.580;2022-08-07T02:09:16;5.22;;;2.72;;
50739;SDS011;36704;52.524;17.580;2022-08-07T02:12:24;5.55;;;2.10;;
50739;SDS011;36704;52.524;17.580;2022-08-07T02:15:18;5.03;;;2.47;;
50739;SDS011;36704;52.524;17.580;2022-08-07T02:18:11;3.88;;;2.45;;
50739;SDS011;36704;52.524;17.580;2022-08-07T02:20:59;5.80;;;2.33;;
50739;SDS011;36704;52.524;17.580;2022-08-07T02:23:52;4.55;;;2.60;;
50739;SDS011;36704;52.524;17.580;2022-08-07T02:26:41;3.25;;;2.30;;
50739;SDS011;36704;52.524;17.580;2022-08-07T02:29:28;4.00;;;2.83;;
50739;SDS011;36704;52.524;17.580;2022-08-07T02:32:18;3.58;;;2.58;;
50739;SDS011;36704;52.524;17.580;2022-08-07T02:35:09;7.00;;;3.10;;
50739;SDS011;36704;52.524;17.580;2022-08-07T02:38:08;5.35;;;2.85;;
50739;SDS011;36704;52.524;17.580;2022-08-07T02:41:00;6.85;;;3.20;;
50739;SDS011;36704;52.524;17.580;2022-08-07T02:43:52;3.55;;;3.03;;
50739;SDS011;36704;52.524;17.580;2022-08-07T02:46:41;4.38;;;3.22;;
50739;SDS011;36704;52.524;17.580;2022-08-07T02:49:38;6.65;;;2.90;;
50739;SDS011;36704;52.524;17.580;2022-08-07T02:52:52;7.15;;;2.92;;
50739;SDS011;36704;52.524;17.580;2022-08-07T02:55:52;6.72;;;3.20;;
50739;SDS011;36704;52.524;17.580;2022-08-07T02:58:51;5.90;;;3.20;;
50739;SDS011;36704;52.524;17.580;2022-08-07T03:01:44;4.13;;;2.75;;
50739;SDS011;36704;52.524;17.580;2022-08-07T03:04:39;6.70;;;3.05;;
50739;SDS011;36704;52.524;17.580;2022-08-07T03:07:37;4.63;;;3.15;;
50739;SDS011;36704;52.524;17.580;2022-08-07T03:10:50;4.65;;;2.90;;
50739;SDS011;36704;52.524;17.580;2022-08-07T03:13:47;5.38;;;3.33;;
50739;SDS011;36704;52.524;17.580;2022-08-07T03:16:46;5.95;;;2.75;;
50739;SDS011;36704;52.524;17.580;2022-08-07T03:19:41;4.38;;;3.00;;
50739;SDS011;36704;52.524;17.580;2022-08-07T03:22:41;6.90;;;3.00;;
50739;SDS011;36704;52.524;17.580;2022-08-07T03:25:40;4.95;;;3.40;;
50739;SDS011;36704;52.524;17.580;2022-08-07T03:28:42;5.28;;;3.20;;
50739;SDS011;36704;52.524;17.580;2022-08-07T03:31:36;7.22;;;3.35;;
50739;SDS011;36704;52.524;17.580;2022-08-07T03:34:31;5.43;;;3.13;;
50739;SDS011;36704;52.524;17.580;2022-08-07T03:37:31;5.82;;;3.95;;
50739;SDS011;36704;52.524;17.580;2022-08-07T03:40:33;5.88;;;3.10;;
50739;SDS011;36704;52.524;17.580;2022-08-07T03:43:33;5.63;;;3.10;;
50739;SDS011;36704;52.524;17.580;2022-08-07T03:46:30;4.90;;;3.25;;
50739;SDS011;36704;52.524;17.580;2022-08-07T03:49:18;4.00;;;3.20;;
50739;SDS011;36704;52.524;17.580;2022-08-07T03:52:05;4.85;;;3.20;;
50739;SDS011;36704;52.524;17.580;2022-08-07T03:55:08;4.68;;;3.40;;
50739;SDS011;36704;52.524;17.580;2022-08-07T03:58:00;7.70;;;3.20;;
50739;SDS011;36704;52.524;17.580;2022-08-07T04:01:08;4.47;;;3.00;;
50739;SDS011;36704;52.524;17.580;2022-08-07T04:04:00;5.13;;;3.20;;
50739;SDS011;36704;52.524;17.580;2022-08-07T04:06:51;5.60;;;3.40;;
50739;SDS011;36704;52.524;17.580;2022-08-07T04:09:43;7.38;;;3.22;;
50739;SDS011;36704;52.524;17.580;2022-08-07T04:12:41;7.35;;;3.67;;
50739;SDS011;36704;52.524;17.580;2022-08-07T04:15:30;8.50;;;3.25;;
50739;SDS011;36704;52.524;17.580;2022-08-07T04:18:17;8.85;;;3.88;;
50739;SDS011;36704;52.524;17.580;2022-08-07T04:21:23;7.70;;;4.07;;
50739;SDS011;36704;52.524;17.580;2022-08-07T04:24:09;6.75;;;3.35;;
50739;SDS011;36704;52.524;17.580;2022-08-07T04:27:16;6.00;;;3.55;;
50739;SDS011;36704;52.524;17.580;2022-08-07T04:30:24;5.07;;;2.97;;
50739;SDS011;36704;52.524;17.580;2022-08-07T04:33:36;6.40;;;3.47;;
50739;SDS011;36704;52.524;17.580;2022-08-07T04:36:24;6.65;;;3.10;;
50739;SDS011;36704;52.524;17.580;2022-08-07T04:39:11;3.95;;;2.80;;
50739;SDS011;36704;52.524;17.580;2022-08-07T04:42:04;5.85;;;3.15;;
50739;SDS011;36704;52.524;17.580;2022-08-07T04:44:53;6.35;;;3.22;;
50739;SDS011;36704;52.524;17.580;2022-08-07T04:47:59;4.00;;;2.90;;
50739;SDS011;36704;52.524;17.580;2022-08-07T04:54:31;6.75;;;3.20;;
50739;SDS011;36704;52.524;17.580;2022-08-07T04:57:41;4.65;;;2.90;;
50739;SDS011;36704;52.524;17.580;2022-08-07T05:01:09;5.18;;;2.80;;
50739;SDS011;36704;52.524;17.580;2022-08-07T05:07:06;8.07;;;2.72;;
50739;SDS011;36704;52.524;17.580;2022-08-07T05:10:12;4.55;;;2.88;;
50739;SDS011;36704;52.524;17.580;2022-08-07T05:13:26;8.65;;;3.35;;
50739;SDS011;36704;52.524;17.580;2022-08-07T05:16:35;5.45;;;3.00;;
50739;SDS011;36704;52.524;17.580;2022-08-07T05:19:43;5.78;;;2.90;;
50739;SDS011;36704;52.524;17.580;2022-08-07T05:22:34;4.15;;;2.63;;
50739;SDS011;36704;52.524;17.580;2022-08-07T05:25:23;4.93;;;2.40;;
50739;SDS011;36704;52.524;17.580;2022-08-07T05:28:33;6.80;;;2.15;;
50739;SDS011;36704;52.524;17.580;2022-08-07T05:31:22;3.63;;;1.60;;
50739;SDS011;36704;52.524;17.580;2022-08-07T05:34:25;4.18;;;1.50;;
50739;SDS011;36704;52.524;17.580;2022-08-07T05:37:14;2.63;;;1.58;;
50739;SDS011;36704;52.524;17.580;2022-08-07T05:40:20;5.72;;;1.70;;
50739;SDS011;36704;52.524;17.580;2022-08-07T05:43:07;3.45;;;1.40;;
50739;SDS011;36704;52.524;17.580;2022-08-07T05:45:56;6.05;;;1.45;;
50739;SDS011;36704;52.524;17.580;2022-08-07T05:48:43;3.13;;;1.45;;
50739;SDS011;36704;52.524;17.580;2022-08-07T05:51:44;3.28;;;1.40;;
50739;SDS011;36704;52.524;17.580;2022-08-07T05:54:36;5.82;;;1.65;;
50739;SDS011;36704;52.524;17.580;2022-08-07T05:57:40;1.63;;;1.17;;
50739;SDS011;36704;52.524;17.580;2022-08-07T06:00:32;6.10;;;1.65;;
50739;SDS011;36704;52.524;17.580;2022-08-07T06:03:22;3.28;;;1.40;;
50739;SDS011;36704;52.524;17.580;2022-08-07T06:06:32;4.28;;;1.63;;
50739;SDS011;36704;52.524;17.580;2022-08-07T06:12:31;3.92;;;1.83;;
50739;SDS011;36704;52.524;17.580;2022-08-07T06:15:21;3.80;;;1.60;;
50739;SDS011;36704;52.524;17.580;2022-08-07T06:18:37;3.20;;;1.52;;
50739;SDS011;36704;52.524;17.580;2022-08-07T06:21:28;4.70;;;1.63;;
50739;SDS011;36704;52.524;17.580;2022-08-07T06:24:35;1.95;;;1.40;;
50739;SDS011;36704;52.524;17.580;2022-08-07T06:27:41;6.15;;;1.58;;
50739;SDS011;36704;52.524;17.580;2022-08-07T06:30:48;2.35;;;1.17;;
50739;SDS011;36704;52.524;17.580;2022-08-07T06:33:41;2.53;;;1.15;;
50739;SDS011;36704;52.524;17.580;2022-08-07T06:36:27;1.85;;;1.40;;
50739;SDS011;36704;52.524;17.580;2022-08-07T06:39:27;4.70;;;1.67;;
50739;SDS011;36704;52.524;17.580;2022-08-07T06:42:36;2.55;;;1.33;;
50739;SDS011;36704;52.524;17.580;2022-08-07T06:45:41;4.90;;;2.22;;
50739;SDS011;36704;52.524;17.580;2022-08-07T06:48:30;4.50;;;2.42;;
50739;SDS011;36704;52.524;17.580;2022-08-07T06:51:27;5.40;;;1.95;;
50739;SDS011;36704;52.524;17.580;2022-08-07T06:54:23;3.33;;;1.70;;
50739;SDS011;36704;52.524;17.580;2022-08-07T06:57:33;3.78;;;1.80;;
50739;SDS011;36704;52.524;17.580;2022-08-07T07:00:44;3.25;;;1.40;;
50739;SDS011;36704;52.524;17.580;2022-08-07T07:03:31;4.70;;;1.88;;
50739;SDS011;36704;52.524;17.580;2022-08-07T07:07:10;4.65;;;1.90;;
50739;SDS011;36704;52.524;17.580;2022-08-07T07:10:26;4.88;;;1.50;;
50739;SDS011;36704;52.524;17.580;2022-08-07T07:13:16;4.88;;;1.80;;
50739;SDS011;36704;52.524;17.580;2022-08-07T07:16:25;2.42;;;1.70;;
50739;SDS011;36704;52.524;17.580;2022-08-07T07:19:18;7.22;;;2.25;;
50739;SDS011;36704;52.524;17.580;2022-08-07T07:22:28;4.30;;;2.15;;
50739;SDS011;36704;52.524;17.580;2022-08-07T07:25:24;5.18;;;2.00;;
50739;SDS011;36704;52.524;17.580;2022-08-07T07:28:33;6.75;;;2.10;;
50739;SDS011;36704;52.524;17.580;2022-08-07T07:31:45;4.95;;;2.28;;
50739;SDS011;36704;52.524;17.580;2022-08-07T07:34:40;3.03;;;1.48;;
50739;SDS011;36704;52.524;17.580;2022-08-07T07:37:30;2.80;;;1.83;;
50739;SDS011;36704;52.524;17.580;2022-08-07T07:40:35;5.63;;;2.60;;
50739;SDS011;36704;52.524;17.580;2022-08-07T07:43:27;3.53;;;1.60;;
50739;SDS011;36704;52.524;17.580;2022-08-07T07:46:36;3.87;;;2.00;;
50739;SDS011;36704;52.524;17.580;2022-08-07T07:49:48;7.25;;;1.80;;
50739;SDS011;36704;52.524;17.580;2022-08-07T07:52:55;3.33;;;1.70;;
50739;SDS011;36704;52.524;17.580;2022-08-07T07:55:47;4.05;;;2.08;;
50739;SDS011;36704;52.524;17.580;2022-08-07T07:58:43;4.32;;;1.92;;
50739;SDS011;36704;52.524;17.580;2022-08-07T08:01:37;5.13;;;1.90;;
50739;SDS011;36704;52.524;17.580;2022-08-07T08:04:45;3.70;;;1.63;;
50739;SDS011;36704;52.524;17.580;2022-08-07T08:07:38;2.35;;;1.60;;
50739;SDS011;36704;52.524;17.580;2022-08-07T08:10:37;4.05;;;1.50;;
50739;SDS011;36704;52.524;17.580;2022-08-07T08:13:42;4.05;;;1.80;;
50739;SDS011;36704;52.524;17.580;2022-08-07T08:16:41;3.22;;;1.65;;
50739;SDS011;36704;52.524;17.580;2022-08-07T08:20:10;2.95;;;1.60;;
50739;SDS011;36704;52.524;17.580;2022-08-07T08:23:10;2.77;;;1.73;;
50739;SDS011;36704;52.524;17.580;2022-08-07T08:26:21;4.60;;;2.05;;
50739;SDS011;36704;52.524;17.580;2022-08-07T08:29:26;4.65;;;1.80;;
50739;SDS011;36704;52.524;17.580;2022-08-07T08:32:16;3.45;;;1.73;;
50739;SDS011;36704;52.524;17.580;2022-08-07T08:35:15;3.55;;;1.77;;
50739;SDS011;36704;52.524;17.580;2022-08-07T08:38:17;8.30;;;1.90;;
50739;SDS011;36704;52.524;17.580;2022-08-07T08:41:20;3.47;;;1.57;;
50739;SDS011;36704;52.524;17.580;2022-08-07T08:44:34;3.50;;;1.38;;
50739;SDS011;36704;52.524;17.580;2022-08-07T08:47:42;3.22;;;1.77;;
50739;SDS011;36704;52.524;17.580;2022-08-07T08:50:49;2.40;;;1.35;;
50739;SDS011;36704;52.524;17.580;2022-08-07T08:53:42;4.97;;;1.58;;
50739;SDS011;36704;52.524;17.580;2022-08-07T08:56:42;2.33;;;1.60;;
50739;SDS011;36704;52.524;17.580;2022-08-07T08:59:46;3.45;;;1.55;;
50739;SDS011;36704;52.524;17.580;2022-08-07T09:02:46;3.53;;;1.60;;
50739;SDS011;36704;52.524;17.580;2022-08-07T09:05:45;3.72;;;1.67;;
50739;SDS011;36704;52.524;17.580;2022-08-07T09:11:48;4.45;;;1.70;;
50739;SDS011;36704;52.524;17.580;2022-08-07T09:14:59;4.85;;;1.70;;
50739;SDS011;36704;52.524;17.580;2022-08-07T09:18:41;3.00;;;1.38;;
50739;SDS011;36704;52.524;17.580;2022-08-07T09:25:03;6.45;;;1.90;;
50739;SDS011;36704;52.524;17.580;2022-08-07T09:28:04;1.83;;;1.10;;
50739;SDS011;36704;52.524;17.580;2022-08-07T09:31:19;3.78;;;1.60;;
50739;SDS011;36704;52.524;17.580;2022-08-07T09:34:28;5.72;;;2.17;;
50739;SDS011;36704;52.524;17.580;2022-08-07T09:37:25;4.88;;;1.80;;
50739;SDS011;36704;52.524;17.580;2022-08-07T09:40:46;3.13;;;1.65;;
50739;SDS011;36704;52.524;17.580;2022-08-07T10:12:13;3.25;;;1.45;;
50739;SDS011;36704;52.524;17.580;2022-08-07T10:33:41;3.40;;;1.33;;
50739;SDS011;36704;52.524;17.580;2022-08-07T10:37:09;3.10;;;1.50;;
50739;SDS011;36704;52.524;17.580;2022-08-07T10:40:59;2.47;;;1.10;;
50739;SDS011;36704;52.524;17.580;2022-08-07T10:43:41;1.75;;;1.10;;
50739;SDS011;36704;52.524;17.580;2022-08-07T10:47:41;3.10;;;1.40;;
50739;SDS011;36704;52.524;17.580;2022-08-07T10:50:46;3.10;;;1.50;;
50739;SDS011;36704;52.524;17.580;2022-08-07T10:53:42;3.10;;;1.20;;
50739;SDS011;36704;52.524;17.580;2022-08-07T11:06:19;3.33;;;1.38;;
50739;SDS011;36704;52.524;17.580;2022-08-07T11:09:13;2.33;;;1.40;;
50739;SDS011;36704;52.524;17.580;2022-08-07T11:12:35;1.85;;;1.20;;
50739;SDS011;36704;52.524;17.580;2022-08-07T11:15:31;3.03;;;1.23;;
50739;SDS011;36704;52.524;17.580;2022-08-07T11:18:36;3.33;;;1.30;;
50739;SDS011;36704;52.524;17.580;2022-08-07T11:21:44;1.73;;;1.15;;
50739;SDS011;36704;52.524;17.580;2022-08-07T11:24:40;3.60;;;1.20;;
50739;SDS011;36704;52.524;17.580;2022-08-07T11:28:25;1.40;;;0.93;;
50739;SDS011;36704;52.524;17.580;2022-08-07T11:32:03;4.50;;;0.98;;
50739;SDS011;36704;52.524;17.580;2022-08-07T11:34:49;1.95;;;1.02;;
50739;SDS011;36704;52.524;17.580;2022-08-07T11:41:13;2.85;;;1.00;;
50739;SDS011;36704;52.524;17.580;2022-08-07T11:57:43;3.97;;;1.40;;
50739;SDS011;36704;52.524;17.580;2022-08-07T12:00:54;3.30;;;0.90;;
50739;SDS011;36704;52.524;17.580;2022-08-07T12:07:17;1.85;;;0.85;;
50739;SDS011;36704;52.524;17.580;2022-08-07T12:10:24;2.58;;;0.88;;
50739;SDS011;36704;52.524;17.580;2022-08-07T12:13:22;1.58;;;0.60;;
50739;SDS011;36704;52.524;17.580;2022-08-07T12:16:30;6.47;;;1.48;;
50739;SDS011;36704;52.524;17.580;2022-08-07T12:26:37;2.30;;;0.93;;
50739;SDS011;36704;52.524;17.580;2022-08-07T12:29:50;4.43;;;1.00;;
50739;SDS011;36704;52.524;17.580;2022-08-07T12:32:42;1.10;;;0.70;;
50739;SDS011;36704;52.524;17.580;2022-08-07T12:35:35;1.45;;;0.70;;
50739;SDS011;36704;52.524;17.580;2022-08-07T12:38:25;2.78;;;0.80;;
50739;SDS011;36704;52.524;17.580;2022-08-07T12:41:33;1.38;;;0.88;;
50739;SDS011;36704;52.524;17.580;2022-08-07T12:44:37;1.27;;;0.70;;
50739;SDS011;36704;52.524;17.580;2022-08-07T12:50:59;2.00;;;0.80;;
50739;SDS011;36704;52.524;17.580;2022-08-07T12:54:16;3.85;;;0.80;;
50739;SDS011;36704;52.524;17.580;2022-08-07T12:57:26;2.35;;;0.80;;
50739;SDS011;36704;52.524;17.580;2022-08-07T13:10:24;2.47;;;0.75;;
50739;SDS011;36704;52.524;17.580;2022-08-07T13:30:47;1.10;;;0.82;;
50739;SDS011;36704;52.524;17.580;2022-08-07T13:36:58;3.15;;;1.00;;
50739;SDS011;36704;52.524;17.580;2022-08-07T13:43:45;1.40;;;0.70;;
50739;SDS011;36704;52.524;17.580;2022-08-07T13:46:38;2.55;;;0.90;;
50739;SDS011;36704;52.524;17.580;2022-08-07T13:49:35;1.58;;;0.70;;
50739;SDS011;36704;52.524;17.580;2022-08-07T13:52:45;5.07;;;1.27;;
50739;SDS011;36704;52.524;17.580;2022-08-07T13:55:34;5.00;;;1.30;;
50739;SDS011;36704;52.524;17.580;2022-08-07T13:58:21;3.22;;;0.95;;
50739;SDS011;36704;52.524;17.580;2022-08-07T14:01:50;2.08;;;0.70;;
50739;SDS011;36704;52.524;17.580;2022-08-07T14:04:50;1.52;;;0.70;;
50739;SDS011;36704;52.524;17.580;2022-08-07T14:07:42;1.55;;;0.70;;
50739;SDS011;36704;52.524;17.580;2022-08-07T14:10:46;1.80;;;1.05;;
50739;SDS011;36704;52.524;17.580;2022-08-07T14:14:06;0.73;;;0.70;;
50739;SDS011;36704;52.524;17.580;2022-08-07T14:16:53;2.22;;;0.90;;
50739;SDS011;36704;52.524;17.580;2022-08-07T14:20:09;2.20;;;0.90;;
50739;SDS011;36704;52.524;17.580;2022-08-07T14:23:25;2.08;;;0.85;;
50739;SDS011;36704;52.524;17.580;2022-08-07T14:29:36;1.95;;;1.02;;
50739;SDS011;36704;52.524;17.580;2022-08-07T14:32:53;1.10;;;0.80;;
50739;SDS011;36704;52.524;17.580;2022-08-07T14:35:45;1.40;;;0.93;;
50739;SDS011;36704;52.524;17.580;2022-08-07T14:38:41;3.00;;;0.70;;
50739;SDS011;36704;52.524;17.580;2022-08-07T14:41:38;1.98;;;1.50;;
50739;SDS011;36704;52.524;17.580;2022-08-07T14:44:48;2.13;;;1.08;;
50739;SDS011;36704;52.524;17.580;2022-08-07T14:47:40;1.67;;;0.90;;
50739;SDS011;36704;52.524;17.580;2022-08-07T14:50:27;2.75;;;0.80;;
50739;SDS011;36704;52.524;17.580;2022-08-07T14:53:41;1.63;;;0.85;;
50739;SDS011;36704;52.524;17.580;2022-08-07T14:56:51;1.95;;;1.00;;
50739;SDS011;36704;52.524;17.580;2022-08-07T14:59:40;1.30;;;0.83;;
50739;SDS011;36704;52.524;17.580;2022-08-07T15:02:47;3.00;;;1.10;;
50739;SDS011;36704;52.524;17.580;2022-08-07T15:05:43;2.03;;;0.95;;
50739;SDS011;36704;52.524;17.580;2022-08-07T15:08:48;3.35;;;1.00;;
50739;SDS011;36704;52.524;17.580;2022-08-07T15:11:59;1.75;;;0.80;;
50739;SDS011;36704;52.524;17.580;2022-08-07T15:14:54;2.92;;;1.02;;
50739;SDS011;36704;52.524;17.580;2022-08-07T15:17:53;1.45;;;0.90;;
50739;SDS011;36704;52.524;17.580;2022-08-07T15:20:47;6.00;;;1.00;;
50739;SDS011;36704;52.524;17.580;2022-08-07T15:23:59;1.20;;;0.90;;
50739;SDS011;36704;52.524;17.580;2022-08-07T15:27:13;2.10;;;0.88;;
50739;SDS011;36704;52.524;17.580;2022-08-07T15:30:10;0.90;;;0.60;;
50739;SDS011;36704;52.524;17.580;2022-08-07T15:33:02;2.70;;;0.85;;
50739;SDS011;36704;52.524;17.580;2022-08-07T15:36:04;1.38;;;1.00;;
50739;SDS011;36704;52.524;17.580;2022-08-07T15:38:59;1.75;;;0.90;;
50739;SDS011;36704;52.524;17.580;2022-08-07T15:42:06;4.30;;;1.00;;
50739;SDS011;36704;52.524;17.580;2022-08-07T15:45:27;1.58;;;0.80;;
50739;SDS011;36704;52.524;17.580;2022-08-07T15:53:28;2.03;;;0.77;;
50739;SDS011;36704;52.524;17.580;2022-08-07T15:57:09;1.35;;;0.70;;
50739;SDS011;36704;52.524;17.580;2022-08-07T16:00:48;2.70;;;0.88;;
50739;SDS011;36704;52.524;17.580;2022-08-07T16:03:37;4.28;;;1.48;;
50739;SDS011;36704;52.524;17.580;2022-08-07T16:06:51;2.55;;;0.73;;
50739;SDS011;36704;52.524;17.580;2022-08-07T16:09:48;2.03;;;0.90;;
50739;SDS011;36704;52.524;17.580;2022-08-07T16:16:08;2.63;;;0.90;;
50739;SDS011;36704;52.524;17.580;2022-08-07T16:19:25;2.58;;;0.80;;
50739;SDS011;36704;52.524;17.580;2022-08-07T16:26:16;1.45;;;0.90;;
50739;SDS011;36704;52.524;17.580;2022-08-07T16:29:25;2.58;;;0.90;;
50739;SDS011;36704;52.524;17.580;2022-08-07T16:32:45;2.13;;;0.90;;
50739;SDS011;36704;52.524;17.580;2022-08-07T16:35:42;2.20;;;0.95;;
50739;SDS011;36704;52.524;17.580;2022-08-07T16:42:09;4.60;;;1.27;;
50739;SDS011;36704;52.524;17.580;2022-08-07T16:45:09;3.20;;;1.40;;
50739;SDS011;36704;52.524;17.580;2022-08-07T16:58:20;4.22;;;1.13;;
50739;SDS011;36704;52.524;17.580;2022-08-07T17:01:09;3.60;;;1.13;;
50739;SDS011;36704;52.524;17.580;2022-08-07T17:04:35;2.05;;;0.93;;
50739;SDS011;36704;52.524;17.580;2022-08-07T17:07:49;2.42;;;1.10;;
50739;SDS011;36704;52.524;17.580;2022-08-07T17:13:49;2.60;;;1.13;;
50739;SDS011;36704;52.524;17.580;2022-08-07T17:17:02;1.08;;;0.82;;
50739;SDS011;36704;52.524;17.580;2022-08-07T17:19:55;3.22;;;1.00;;
50739;SDS011;36704;52.524;17.580;2022-08-07T17:22:55;3.97;;;1.00;;
50739;SDS011;36704;52.524;17.580;2022-08-07T17:29:17;3.70;;;1.17;;
50739;SDS011;36704;52.524;17.580;2022-08-07T17:44:50;4.63;;;1.33;;
50739;SDS011;36704;52.524;17.580;2022-08-07T17:50:51;3.15;;;0.80;;
50739;SDS011;36704;52.524;17.580;2022-08-07T17:53:56;3.50;;;0.90;;
50739;SDS011;36704;52.524;17.580;2022-08-07T17:57:10;6.25;;;1.13;;
50739;SDS011;36704;52.524;17.580;2022-08-07T18:00:07;3.63;;;1.02;;
50739;SDS011;36704;52.524;17.580;2022-08-07T18:03:25;13.35;;;1.48;;
50739;SDS011;36704;52.524;17.580;2022-08-07T18:06:38;14.27;;;2.17;;
50739;SDS011;36704;52.524;17.580;2022-08-07T18:09:59;4.70;;;1.58;;
50739;SDS011;36704;52.524;17.580;2022-08-07T18:13:19;5.03;;;1.15;;
50739;SDS011;36704;52.524;17.580;2022-08-07T18:16:33;1.92;;;0.90;;
50739;SDS011;36704;52.524;17.580;2022-08-07T18:19:45;4.30;;;1.33;;
50739;SDS011;36704;52.524;17.580;2022-08-07T18:23:06;5.78;;;2.15;;
50739;SDS011;36704;52.524;17.580;2022-08-07T18:26:29;7.70;;;1.98;;
50739;SDS011;36704;52.524;17.580;2022-08-07T18:33:28;8.85;;;1.88;;
50739;SDS011;36704;52.524;17.580;2022-08-07T18:58:58;6.95;;;2.60;;
50739;SDS011;36704;52.524;17.580;2022-08-07T19:05:52;9.60;;;2.95;;
50739;SDS011;36704;52.524;17.580;2022-08-07T19:12:21;13.43;;;4.63;;
50739;SDS011;36704;52.524;17.580;2022-08-07T19:15:55;7.30;;;4.00;;
50739;SDS011;36704;52.524;17.580;2022-08-07T19:19:27;14.07;;;4.45;;
50739;SDS011;36704;52.524;17.580;2022-08-07T19:25:37;8.77;;;3.25;;
50739;SDS011;36704;52.524;17.580;2022-08-07T19:28:51;6.30;;;3.30;;
50739;SDS011;36704;52.524;17.580;2022-08-07T19:32:17;8.18;;;4.10;;
50739;SDS011;36704;52.524;17.580;2022-08-07T19:35:32;8.85;;;3.60;;
50739;SDS011;36704;52.524;17.580;2022-08-07T19:38:20;9.65;;;4.13;;
50739;SDS011;36704;52.524;17.580;2022-08-07T19:41:07;9.52;;;5.25;;
50739;SDS011;36704;52.524;17.580;2022-08-07T19:44:00;13.20;;;6.47;;
50739;SDS011;36704;52.524;17.580;2022-08-07T19:47:06;12.07;;;5.65;;
50739;SDS011;36704;52.524;17.580;2022-08-07T19:49:59;10.48;;;4.90;;
50739;SDS011;36704;52.524;17.580;2022-08-07T19:53:13;9.38;;;5.47;;
50739;SDS011;36704;52.524;17.580;2022-08-07T19:56:22;13.57;;;5.43;;
50739;SDS011;36704;52.524;17.580;2022-08-07T19:59:55;12.43;;;5.95;;
50739;SDS011;36704;52.524;17.580;2022-08-07T20:02:52;9.60;;;4.82;;
50739;SDS011;36704;52.524;17.580;2022-08-07T20:05:51;13.77;;;5.07;;
50739;SDS011;36704;52.524;17.580;2022-08-07T20:08:47;16.08;;;5.25;;
50739;SDS011;36704;52.524;17.580;2022-08-07T20:11:39;8.45;;;4.60;;
50739;SDS011;36704;52.524;17.580;2022-08-07T20:14:50;9.77;;;4.78;;
50739;SDS011;36704;52.524;17.580;2022-08-07T20:17:44;8.73;;;4.53;;
50739;SDS011;36704;52.524;17.580;2022-08-07T20:20:49;11.07;;;4.85;;
50739;SDS011;36704;52.524;17.580;2022-08-07T20:23:54;12.30;;;5.32;;
50739;SDS011;36704;52.524;17.580;2022-08-07T20:26:46;19.08;;;5.97;;
50739;SDS011;36704;52.524;17.580;2022-08-07T20:29:46;17.02;;;6.45;;
50739;SDS011;36704;52.524;17.580;2022-08-07T20:32:45;14.02;;;5.38;;
50739;SDS011;36704;52.524;17.580;2022-08-07T20:35:44;11.55;;;4.80;;
50739;SDS011;36704;52.524;17.580;2022-08-07T20:38:49;15.02;;;6.32;;
50739;SDS011;36704;52.524;17.580;2022-08-07T20:42:02;11.43;;;5.82;;
50739;SDS011;36704;52.524;17.580;2022-08-07T20:44:56;12.18;;;6.70;;
50739;SDS011;36704;52.524;17.580;2022-08-07T20:47:45;10.73;;;6.15;;
50739;SDS011;36704;52.524;17.580;2022-08-07T20:50:42;13.07;;;6.50;;
50739;SDS011;36704;52.524;17.580;2022-08-07T20:53:33;13.85;;;5.75;;
50739;SDS011;36704;52.524;17.580;2022-08-07T20:56:41;13.95;;;6.38;;
50739;SDS011;36704;52.524;17.580;2022-08-07T20:59:34;13.68;;;6.95;;
50739;SDS011;36704;52.524;17.580;2022-08-07T21:02:44;12.95;;;7.50;;
50739;SDS011;36704;52.524;17.580;2022-08-07T21:05:47;16.35;;;7.70;;
50739;SDS011;36704;52.524;17.580;2022-08-07T21:11:40;12.40;;;7.03;;
50739;SDS011;36704;52.524;17.580;2022-08-07T21:14:37;19.77;;;7.75;;
50739;SDS011;36704;52.524;17.580;2022-08-07T21:17:33;17.55;;;8.57;;
50739;SDS011;36704;52.524;17.580;2022-08-07T21:20:44;17.50;;;7.57;;
50739;SDS011;36704;52.524;17.580;2022-08-07T21:23:53;17.92;;;6.80;;
50739;SDS011;36704;52.524;17.580;2022-08-07T21:26:58;12.98;;;6.40;;
50739;SDS011;36704;52.524;17.580;2022-08-07T21:30:00;11.18;;;6.63;;
50739;SDS011;36704;52.524;17.580;2022-08-07T21:32:56;11.70;;;6.50;;
50739;SDS011;36704;52.524;17.580;2022-08-07T21:35:52;19.10;;;8.75;;
50739;SDS011;36704;52.524;17.580;2022-08-07T21:42:49;21.60;;;8.57;;
50739;SDS011;36704;52.524;17.580;2022-08-07T21:45:52;17.83;;;8.13;;
50739;SDS011;36704;52.524;17.580;2022-08-07T21:48:58;17.30;;;7.35;;
50739;SDS011;36704;52.524;17.580;2022-08-07T21:55:39;15.85;;;7.30;;